createdAt,value
2023-03-06T00:00:07.975Z,100.00
2023-03-06T00:01:10.448Z,100.00
2023-03-06T00:02:12.848Z,100.00
2023-03-06T00:03:15.288Z,100.00
2023-03-06T00:04:17.812Z,100.00
2023-03-06T00:05:20.406Z,100.00
2023-03-06T00:06:22.848Z,100.00
2023-03-06T00:07:25.350Z,100.00
2023-03-06T00:08:27.840Z,100.00
2023-03-06T00:09:30.394Z,100.00
2023-03-06T00:10:32.823Z,100.00
2023-03-06T00:11:35.337Z,100.00
2023-03-06T00:12:37.809Z,100.00
2023-03-06T00:13:40.267Z,100.00
2023-03-06T00:14:42.764Z,100.00
2023-03-06T00:15:45.278Z,100.00
2023-03-06T00:16:48.531Z,100.00
2023-03-06T00:17:51.252Z,100.00
2023-03-06T00:18:53.553Z,100.00
2023-03-06T00:19:55.777Z,100.00
2023-03-06T00:20:57.955Z,100.00
2023-03-06T00:22:00.162Z,100.00
2023-03-06T00:23:02.346Z,100.00
2023-03-06T00:24:04.665Z,100.00
2023-03-06T00:25:06.868Z,100.00
2023-03-06T00:26:09.101Z,100.00
2023-03-06T00:27:11.257Z,100.00
2023-03-06T00:28:13.480Z,100.00
2023-03-06T00:29:15.802Z,100.00
2023-03-06T00:30:18.015Z,100.00
2023-03-06T00:31:20.250Z,100.00
2023-03-06T00:32:22.575Z,100.00
2023-03-06T00:33:25.082Z,100.00
2023-03-06T00:34:27.704Z,100.00
2023-03-06T00:35:30.194Z,100.00
2023-03-06T00:36:32.648Z,100.00
2023-03-06T00:37:35.182Z,100.00
2023-03-06T00:38:37.581Z,100.00
2023-03-06T00:39:40.256Z,100.00
2023-03-06T00:40:42.840Z,100.00
2023-03-06T00:41:46.982Z,100.00
2023-03-06T00:42:49.747Z,100.00
2023-03-06T00:43:52.192Z,100.00
2023-03-06T00:44:54.604Z,100.00
2023-03-06T00:45:57.140Z,100.00
2023-03-06T00:46:59.771Z,100.00
2023-03-06T00:48:02.418Z,100.00
2023-03-06T00:49:04.889Z,100.00
2023-03-06T00:50:07.355Z,100.00
2023-03-06T00:51:11.479Z,100.00
2023-03-06T00:52:13.642Z,100.00
2023-03-06T00:53:16.065Z,100.00
2023-03-06T00:54:18.406Z,100.00
2023-03-06T00:55:21.311Z,100.00
2023-03-06T00:56:23.812Z,100.00
2023-03-06T00:57:26.238Z,100.00
2023-03-06T00:58:28.618Z,100.00
2023-03-06T00:59:31.069Z,100.00
2023-03-06T01:00:33.585Z,100.00
2023-03-06T01:01:36.040Z,100.00
2023-03-06T01:02:38.643Z,100.00
2023-03-06T01:03:41.103Z,100.00
2023-03-06T01:04:43.476Z,100.00
2023-03-06T01:05:46.132Z,100.00
2023-03-06T01:06:48.582Z,100.00
2023-03-06T01:07:50.821Z,100.00
2023-03-06T01:08:53.047Z,100.00
2023-03-06T01:09:55.560Z,100.00
2023-03-06T01:10:57.973Z,100.00
2023-03-06T01:12:00.477Z,100.00
2023-03-06T01:13:02.679Z,100.00
2023-03-06T01:14:04.848Z,100.00
2023-03-06T01:15:07.023Z,100.00
2023-03-06T01:16:09.510Z,100.00
2023-03-06T01:17:12.015Z,100.00
2023-03-06T01:18:14.472Z,100.00
2023-03-06T01:19:17.070Z,100.00
2023-03-06T01:20:19.549Z,100.00
2023-03-06T01:21:22.090Z,100.00
2023-03-06T01:22:24.510Z,100.00
2023-03-06T01:23:29.999Z,100.00
2023-03-06T01:24:32.387Z,100.00
2023-03-06T01:25:34.788Z,100.00
2023-03-06T01:26:37.346Z,100.00
2023-03-06T01:27:39.722Z,100.00
2023-03-06T01:28:42.235Z,100.00
2023-03-06T01:29:44.718Z,100.00
2023-03-06T01:30:47.256Z,100.00
2023-03-06T01:31:49.841Z,100.00
2023-03-06T01:32:52.265Z,100.00
2023-03-06T01:33:54.707Z,100.00
2023-03-06T01:34:57.218Z,100.00
2023-03-06T01:35:59.701Z,100.00
2023-03-06T01:37:02.358Z,100.00
2023-03-06T01:38:04.762Z,100.00
2023-03-06T01:39:07.262Z,100.00
2023-03-06T01:40:09.827Z,100.00
2023-03-06T01:41:12.330Z,100.00
2023-03-06T01:42:14.852Z,100.00
2023-03-06T01:43:17.061Z,100.00
2023-03-06T01:44:19.348Z,100.00
2023-03-06T01:45:21.573Z,100.00
2023-03-06T01:46:23.790Z,100.00
2023-03-06T01:47:26.303Z,100.00
2023-03-06T01:48:28.519Z,100.00
2023-03-06T01:49:30.690Z,100.00
2023-03-06T01:50:32.982Z,100.00
2023-03-06T01:51:35.546Z,100.00
2023-03-06T01:52:37.787Z,100.00
2023-03-06T01:53:40.039Z,100.00
2023-03-06T01:54:42.198Z,100.00
2023-03-06T01:55:45.016Z,100.00
2023-03-06T01:56:47.609Z,100.00
2023-03-06T01:57:50.288Z,100.00
2023-03-06T01:58:52.728Z,100.00
2023-03-06T01:59:55.009Z,100.00
2023-03-06T02:00:57.395Z,100.00
2023-03-06T02:01:59.763Z,100.00
2023-03-06T02:03:02.166Z,100.00
2023-03-06T02:04:04.431Z,100.00
2023-03-06T02:05:06.632Z,100.00
2023-03-06T02:06:08.914Z,100.00
2023-03-06T02:07:11.140Z,100.00
2023-03-06T02:08:13.625Z,100.00
2023-03-06T02:09:15.882Z,100.00
2023-03-06T02:10:18.293Z,100.00
2023-03-06T02:11:20.870Z,100.00
2023-03-06T02:12:23.321Z,100.00
2023-03-06T02:13:26.017Z,100.00
2023-03-06T02:14:28.584Z,100.00
2023-03-06T02:15:31.227Z,100.00
2023-03-06T02:16:33.694Z,100.00
2023-03-06T02:17:36.182Z,100.00
2023-03-06T02:18:38.644Z,100.00
2023-03-06T02:19:41.090Z,100.00
2023-03-06T02:20:43.527Z,100.00
2023-03-06T02:21:46.074Z,100.00
2023-03-06T02:22:48.508Z,100.00
2023-03-06T02:23:51.221Z,100.00
2023-03-06T02:24:53.802Z,100.00
2023-03-06T02:25:56.237Z,100.00
2023-03-06T02:26:58.544Z,100.00
2023-03-06T02:28:00.948Z,100.00
2023-03-06T02:29:03.999Z,100.00
2023-03-06T02:30:06.500Z,100.00
2023-03-06T02:31:09.167Z,100.00
2023-03-06T02:32:11.633Z,100.00
2023-03-06T02:33:14.195Z,100.00
2023-03-06T02:34:16.671Z,100.00
2023-03-06T02:35:19.136Z,100.00
2023-03-06T02:36:21.597Z,100.00
2023-03-06T02:37:24.056Z,100.00
2023-03-06T02:38:26.500Z,100.00
2023-03-06T02:39:28.980Z,100.00
2023-03-06T02:40:31.440Z,100.00
2023-03-06T02:41:33.983Z,100.00
2023-03-06T02:42:36.452Z,100.00
2023-03-06T02:43:38.713Z,100.00
2023-03-06T02:44:41.035Z,100.00
2023-03-06T02:45:43.318Z,100.00
2023-03-06T02:46:45.561Z,100.00
2023-03-06T02:47:47.765Z,100.00
2023-03-06T02:48:49.971Z,100.00
2023-03-06T02:49:52.212Z,100.00
2023-03-06T02:50:54.395Z,100.00
2023-03-06T02:51:56.898Z,100.00
2023-03-06T02:52:59.426Z,100.00
2023-03-06T02:54:01.976Z,100.00
2023-03-06T02:55:04.662Z,100.00
2023-03-06T02:56:07.129Z,100.00
2023-03-06T02:57:09.363Z,100.00
2023-03-06T02:58:11.585Z,100.00
2023-03-06T02:59:13.928Z,100.00
2023-03-06T03:00:16.334Z,100.00
2023-03-06T03:01:18.664Z,100.00
2023-03-06T03:02:21.033Z,100.00
2023-03-06T03:03:23.261Z,100.00
2023-03-06T03:04:25.612Z,100.00
2023-03-06T03:05:27.890Z,100.00
2023-03-06T03:06:30.121Z,100.00
2023-03-06T03:07:32.346Z,100.00
2023-03-06T03:08:34.556Z,100.00
2023-03-06T03:09:36.923Z,100.00
2023-03-06T03:10:39.474Z,100.00
2023-03-06T03:11:41.848Z,100.00
2023-03-06T03:12:44.672Z,100.00
2023-03-06T03:13:47.175Z,100.00
2023-03-06T03:14:49.695Z,100.00
2023-03-06T03:15:52.199Z,100.00
2023-03-06T03:16:54.834Z,100.00
2023-03-06T03:17:57.257Z,100.00
2023-03-06T03:18:59.746Z,100.00
2023-03-06T03:20:02.303Z,100.00
2023-03-06T03:21:04.856Z,100.00
2023-03-06T03:22:07.267Z,100.00
2023-03-06T03:23:09.648Z,100.00
2023-03-06T03:24:12.032Z,100.00
2023-03-06T03:25:14.530Z,100.00
2023-03-06T03:26:17.002Z,100.00
2023-03-06T03:27:19.335Z,100.00
2023-03-06T03:28:21.923Z,100.00
2023-03-06T03:29:24.376Z,100.00
2023-03-06T03:30:26.874Z,100.00
2023-03-06T03:31:29.449Z,100.00
2023-03-06T03:32:32.149Z,100.00
2023-03-06T03:33:34.611Z,100.00
2023-03-06T03:34:37.071Z,100.00
2023-03-06T03:35:39.670Z,100.00
2023-03-06T03:36:43.527Z,100.00
2023-03-06T03:37:46.115Z,100.00
2023-03-06T03:38:48.676Z,100.00
2023-03-06T03:39:50.880Z,100.00
2023-03-06T03:40:53.082Z,100.00
2023-03-06T03:41:55.533Z,100.00
2023-03-06T03:42:57.764Z,100.00
2023-03-06T03:43:59.978Z,100.00
2023-03-06T03:45:02.339Z,100.00
2023-03-06T03:46:04.942Z,100.00
2023-03-06T03:47:07.487Z,100.00
2023-03-06T03:48:09.964Z,100.00
2023-03-06T03:49:12.585Z,100.00
2023-03-06T03:50:15.081Z,100.00
2023-03-06T03:51:17.558Z,100.00
2023-03-06T03:52:20.037Z,100.00
2023-03-06T03:53:22.485Z,100.00
2023-03-06T03:54:24.966Z,100.00
2023-03-06T03:55:27.375Z,100.00
2023-03-06T03:56:29.988Z,100.00
2023-03-06T03:57:32.593Z,100.00
2023-03-06T03:58:35.035Z,100.00
2023-03-06T03:59:37.579Z,100.00
2023-03-06T04:00:40.036Z,100.00
2023-03-06T04:01:42.677Z,100.00
2023-03-06T04:02:45.671Z,100.00
2023-03-06T04:03:48.149Z,100.00
2023-03-06T04:04:50.857Z,100.00
2023-03-06T04:05:53.406Z,100.00
2023-03-06T04:06:55.876Z,100.00
2023-03-06T04:07:58.560Z,100.00
2023-03-06T04:09:01.053Z,100.00
2023-03-06T04:10:03.575Z,100.00
2023-03-06T04:11:06.021Z,100.00
2023-03-06T04:12:08.760Z,100.00
2023-03-06T04:13:11.424Z,100.00
2023-03-06T04:14:13.886Z,100.00
2023-03-06T04:15:16.148Z,100.00
2023-03-06T04:16:18.308Z,100.00
2023-03-06T04:17:20.671Z,100.00
2023-03-06T04:18:23.015Z,100.00
2023-03-06T04:19:25.254Z,100.00
2023-03-06T04:20:27.476Z,100.00
2023-03-06T04:21:29.692Z,100.00
2023-03-06T04:22:31.910Z,100.00
2023-03-06T04:23:34.211Z,100.00
2023-03-06T04:24:36.427Z,100.00
2023-03-06T04:25:38.781Z,100.00
2023-03-06T04:26:41.014Z,100.00
2023-03-06T04:27:43.308Z,100.00
2023-03-06T04:28:45.707Z,100.00
2023-03-06T04:29:47.965Z,100.00
2023-03-06T04:30:50.430Z,100.00
2023-03-06T04:31:53.140Z,100.00
2023-03-06T04:32:55.592Z,100.00
2023-03-06T04:33:58.135Z,100.00
2023-03-06T04:35:00.759Z,100.00
2023-03-06T04:36:03.278Z,100.00
2023-03-06T04:37:05.757Z,100.00
2023-03-06T04:38:08.274Z,100.00
2023-03-06T04:39:10.733Z,100.00
2023-03-06T04:40:13.323Z,100.00
2023-03-06T04:41:15.906Z,100.00
2023-03-06T04:42:18.625Z,100.00
2023-03-06T04:43:21.214Z,100.00
2023-03-06T04:44:23.686Z,100.00
2023-03-06T04:45:26.144Z,100.00
2023-03-06T04:46:28.610Z,100.00
2023-03-06T04:47:31.080Z,100.00
2023-03-06T04:48:33.600Z,100.00
2023-03-06T04:49:36.078Z,100.00
2023-03-06T04:50:38.558Z,100.00
2023-03-06T04:51:41.084Z,100.00
2023-03-06T04:52:43.548Z,100.00
2023-03-06T04:53:46.168Z,100.00
2023-03-06T04:54:48.940Z,100.00
2023-03-06T04:55:51.479Z,100.00
2023-03-06T04:56:53.906Z,100.00
2023-03-06T04:57:56.159Z,100.00
2023-03-06T04:58:58.434Z,100.00
2023-03-06T05:00:00.878Z,100.00
2023-03-06T05:01:03.333Z,100.00
2023-03-06T05:02:05.647Z,100.00
2023-03-06T05:03:07.896Z,100.00
2023-03-06T05:04:10.374Z,100.00
2023-03-06T05:05:12.871Z,100.00
2023-03-06T05:06:15.336Z,100.00
2023-03-06T05:07:17.906Z,100.00
2023-03-06T05:08:20.385Z,100.00
2023-03-06T05:09:23.028Z,100.00
2023-03-06T05:10:25.939Z,100.00
2023-03-06T05:11:28.396Z,100.00
2023-03-06T05:12:30.932Z,100.00
2023-03-06T05:13:33.565Z,100.00
2023-03-06T05:14:35.997Z,100.00
2023-03-06T05:15:38.933Z,100.00
2023-03-06T05:16:41.440Z,100.00
2023-03-06T05:17:44.054Z,100.00
2023-03-06T05:18:48.913Z,100.00
2023-03-06T05:19:50.757Z,100.00
2023-03-06T05:20:53.523Z,100.00
2023-03-06T05:21:55.965Z,100.00
2023-03-06T05:22:58.431Z,98.32
2023-03-06T05:24:01.037Z,97.49
2023-03-06T05:25:03.598Z,96.30
2023-03-06T05:26:06.033Z,95.87
2023-03-06T05:27:08.368Z,95.93
2023-03-06T05:28:10.881Z,94.81
2023-03-06T05:29:13.028Z,94.81
2023-03-06T05:30:15.533Z,95.37
2023-03-06T05:31:18.263Z,96.32
2023-03-06T05:32:20.787Z,95.00
2023-03-06T05:33:23.247Z,94.38
2023-03-06T05:34:25.757Z,93.50
2023-03-06T05:35:28.088Z,93.89
2023-03-06T05:36:30.577Z,93.04
2023-03-06T05:37:32.752Z,92.35
2023-03-06T05:38:35.171Z,92.86
2023-03-06T05:39:37.414Z,92.54
2023-03-06T05:40:39.700Z,95.18
2023-03-06T05:41:42.176Z,93.21
2023-03-06T05:42:44.508Z,93.39
2023-03-06T05:43:46.898Z,93.92
2023-03-06T05:44:49.256Z,94.19
2023-03-06T05:45:51.743Z,93.27
2023-03-06T05:46:54.046Z,93.05
2023-03-06T05:47:56.226Z,94.19
2023-03-06T05:48:58.538Z,92.48
2023-03-06T05:50:00.931Z,92.13
2023-03-06T05:51:03.236Z,93.08
2023-03-06T05:52:05.710Z,91.55
2023-03-06T05:53:08.178Z,91.98
2023-03-06T05:54:10.632Z,92.34
2023-03-06T05:55:13.123Z,91.35
2023-03-06T05:56:15.652Z,91.61
2023-03-06T05:57:18.320Z,91.12
2023-03-06T05:58:20.701Z,90.95
2023-03-06T05:59:23.169Z,91.24
2023-03-06T06:00:25.586Z,92.37
2023-03-06T06:01:28.124Z,91.25
2023-03-06T06:02:30.663Z,91.89
2023-03-06T06:03:33.262Z,92.17
2023-03-06T06:04:35.717Z,90.90
2023-03-06T06:05:38.299Z,91.74
2023-03-06T06:06:40.928Z,90.45
2023-03-06T06:07:44.815Z,91.15
2023-03-06T06:08:47.418Z,90.43
2023-03-06T06:09:49.716Z,92.06
2023-03-06T06:10:53.453Z,91.10
2023-03-06T06:11:56.333Z,91.51
2023-03-06T06:12:58.790Z,92.17
2023-03-06T06:14:01.474Z,91.73
2023-03-06T06:15:04.093Z,91.41
2023-03-06T06:16:06.635Z,91.10
2023-03-06T06:17:09.151Z,90.82
2023-03-06T06:18:11.755Z,91.25
2023-03-06T06:19:14.357Z,91.60
2023-03-06T06:20:16.947Z,91.19
2023-03-06T06:21:19.345Z,91.55
2023-03-06T06:22:21.795Z,90.91
2023-03-06T06:23:24.766Z,91.42
2023-03-06T06:24:27.171Z,90.89
2023-03-06T06:25:29.397Z,90.98
2023-03-06T06:26:31.640Z,92.17
2023-03-06T06:27:33.927Z,92.58
2023-03-06T06:28:36.195Z,90.82
2023-03-06T06:29:38.532Z,90.71
2023-03-06T06:30:40.736Z,90.74
2023-03-06T06:31:42.960Z,91.08
2023-03-06T06:32:45.160Z,90.55
2023-03-06T06:33:48.094Z,90.44
2023-03-06T06:34:50.610Z,90.85
2023-03-06T06:35:53.286Z,90.44
2023-03-06T06:36:55.820Z,89.63
2023-03-06T06:37:58.305Z,89.57
2023-03-06T06:39:01.220Z,90.61
2023-03-06T06:40:03.838Z,89.50
2023-03-06T06:41:35.730Z,90.00
2023-03-06T06:42:30.221Z,90.10
2023-03-06T06:43:14.260Z,89.91
2023-03-06T06:44:16.993Z,89.18
2023-03-06T06:45:19.478Z,89.59
2023-03-06T06:47:05.815Z,90.34
2023-03-06T06:47:26.166Z,89.11
2023-03-06T06:48:28.601Z,88.67
2023-03-06T06:49:31.070Z,89.08
2023-03-06T06:50:33.262Z,89.39
2023-03-06T06:51:35.781Z,89.34
2023-03-06T06:52:38.237Z,89.24
2023-03-06T06:53:40.694Z,88.60
2023-03-06T06:54:43.187Z,90.26
2023-03-06T06:55:45.668Z,89.66
2023-03-06T06:56:48.141Z,88.52
2023-03-06T06:57:50.673Z,88.99
2023-03-06T06:58:53.129Z,88.71
2023-03-06T06:59:55.813Z,89.08
2023-03-06T07:00:58.241Z,88.74
2023-03-06T07:02:00.615Z,88.63
2023-03-06T07:03:02.826Z,88.32
2023-03-06T07:04:05.168Z,89.44
2023-03-06T07:05:07.417Z,89.88
2023-03-06T07:06:09.570Z,88.48
2023-03-06T07:07:12.000Z,89.38
2023-03-06T07:08:14.188Z,88.95
2023-03-06T07:09:16.384Z,88.85
2023-03-06T07:10:20.064Z,88.95
2023-03-06T07:11:22.627Z,89.39
2023-03-06T07:12:25.118Z,88.73
2023-03-06T07:13:27.549Z,88.00
2023-03-06T07:14:30.213Z,88.09
2023-03-06T07:15:32.768Z,88.12
2023-03-06T07:16:35.016Z,87.61
2023-03-06T07:17:37.303Z,88.63
2023-03-06T07:18:39.787Z,88.47
2023-03-06T07:19:42.187Z,88.09
2023-03-06T07:20:44.687Z,88.50
2023-03-06T07:21:47.479Z,88.33
2023-03-06T07:22:51.828Z,88.82
2023-03-06T07:23:53.968Z,88.74
2023-03-06T07:24:56.504Z,88.82
2023-03-06T07:25:58.970Z,87.92
2023-03-06T07:27:01.547Z,89.07
2023-03-06T07:28:04.095Z,89.32
2023-03-06T07:29:06.641Z,88.50
2023-03-06T07:30:09.093Z,88.85
2023-03-06T07:31:11.630Z,88.60
2023-03-06T07:32:14.203Z,88.80
2023-03-06T07:33:16.675Z,88.15
2023-03-06T07:34:19.156Z,88.56
2023-03-06T07:35:21.640Z,89.49
2023-03-06T07:36:24.239Z,88.43
2023-03-06T07:37:26.720Z,88.65
2023-03-06T07:38:29.143Z,88.87
2023-03-06T07:39:31.734Z,89.51
2023-03-06T07:40:34.199Z,89.31
2023-03-06T07:41:36.897Z,89.14
2023-03-06T07:42:39.383Z,90.17
2023-03-06T07:43:41.784Z,89.12
2023-03-06T07:44:44.293Z,89.83
2023-03-06T07:45:46.793Z,89.33
2023-03-06T07:46:49.703Z,89.43
2023-03-06T07:47:52.073Z,89.65
2023-03-06T07:48:54.502Z,96.91
2023-03-06T07:49:57.018Z,99.57
2023-03-06T07:50:59.480Z,100.00
2023-03-06T07:52:02.105Z,100.00
2023-03-06T07:53:04.737Z,100.00
2023-03-06T07:54:06.981Z,100.00
2023-03-06T07:55:09.422Z,100.00
2023-03-06T07:56:11.862Z,100.00
2023-03-06T07:57:14.831Z,100.00
2023-03-06T07:58:17.327Z,100.00
2023-03-06T07:59:19.778Z,100.00
2023-03-06T08:00:22.378Z,100.00
2023-03-06T08:01:25.056Z,100.00
2023-03-06T08:02:27.931Z,100.00
2023-03-06T08:03:30.472Z,100.00
2023-03-06T08:04:32.874Z,100.00
2023-03-06T08:05:35.292Z,100.00
2023-03-06T08:06:37.481Z,100.00
2023-03-06T08:07:39.885Z,100.00
2023-03-06T08:08:42.124Z,100.00
2023-03-06T08:09:44.338Z,100.00
2023-03-06T08:10:46.619Z,100.00
2023-03-06T08:11:48.807Z,100.00
2023-03-06T08:12:51.111Z,100.00
2023-03-06T08:13:53.304Z,100.00
2023-03-06T08:14:55.578Z,100.00
2023-03-06T08:15:58.337Z,100.00
2023-03-06T08:17:00.765Z,100.00
2023-03-06T08:18:03.441Z,100.00
2023-03-06T08:19:05.824Z,100.00
2023-03-06T08:20:08.258Z,100.00
2023-03-06T08:21:10.744Z,100.00
2023-03-06T08:22:13.183Z,100.00
2023-03-06T08:23:15.941Z,100.00
2023-03-06T08:24:18.178Z,100.00
2023-03-06T08:25:20.449Z,100.00
2023-03-06T08:26:22.635Z,100.00
2023-03-06T08:27:24.884Z,100.00
2023-03-06T08:28:27.318Z,100.00
2023-03-06T08:29:31.028Z,100.00
2023-03-06T08:30:33.370Z,100.00
2023-03-06T08:31:35.642Z,100.00
2023-03-06T08:32:38.047Z,100.00
2023-03-06T08:33:40.617Z,100.00
2023-03-06T08:34:43.343Z,100.00
2023-03-06T08:35:46.066Z,100.00
2023-03-06T08:36:48.522Z,100.00
2023-03-06T08:37:50.997Z,100.00
2023-03-06T08:38:53.529Z,100.00
2023-03-06T08:39:56.024Z,100.00
2023-03-06T08:40:58.455Z,100.00
2023-03-06T08:42:00.997Z,100.00
2023-03-06T08:43:03.496Z,100.00
2023-03-06T08:44:06.228Z,100.00
2023-03-06T08:45:08.698Z,100.00
2023-03-06T08:46:11.096Z,100.00
2023-03-06T08:47:13.595Z,100.00
2023-03-06T08:48:16.059Z,100.00
2023-03-06T08:49:18.686Z,100.00
2023-03-06T08:50:21.147Z,100.00
2023-03-06T08:51:23.592Z,100.00
2023-03-06T08:52:26.054Z,100.00
2023-03-06T08:53:42.067Z,100.00
2023-03-06T08:54:32.632Z,100.00
2023-03-06T08:55:34.898Z,100.00
2023-03-06T08:56:37.399Z,100.00
2023-03-06T08:57:39.621Z,100.00
2023-03-06T08:58:41.880Z,100.00
2023-03-06T08:59:44.145Z,100.00
2023-03-06T09:00:46.553Z,100.00
2023-03-06T09:01:48.921Z,100.00
2023-03-06T09:02:51.118Z,100.00
2023-03-06T09:03:53.348Z,100.00
2023-03-06T09:04:55.600Z,100.00
2023-03-06T09:05:57.755Z,100.00
2023-03-06T09:07:00.179Z,100.00
2023-03-06T09:08:02.587Z,100.00
2023-03-06T09:09:04.998Z,100.00
2023-03-06T09:10:07.462Z,100.00
2023-03-06T09:11:09.981Z,100.00
2023-03-06T09:12:12.414Z,100.00
2023-03-06T09:13:14.915Z,100.00
2023-03-06T09:14:17.392Z,100.00
2023-03-06T09:15:19.904Z,100.00
2023-03-06T09:16:22.725Z,100.00
2023-03-06T09:17:25.474Z,100.00
2023-03-06T09:18:27.931Z,100.00
2023-03-06T09:19:30.593Z,100.00
2023-03-06T09:20:33.283Z,100.00
2023-03-06T09:21:35.804Z,100.00
2023-03-06T09:22:38.263Z,100.00
2023-03-06T09:23:40.671Z,100.00
2023-03-06T09:24:43.058Z,100.00
2023-03-06T09:25:45.812Z,100.00
2023-03-06T09:26:50.528Z,100.00
2023-03-06T09:28:08.775Z,100.00
2023-03-06T09:28:56.412Z,100.00
2023-03-06T09:29:58.861Z,100.00
2023-03-06T09:31:01.391Z,100.00
2023-03-06T09:32:03.900Z,100.00
2023-03-06T09:33:06.294Z,100.00
2023-03-06T09:34:08.520Z,100.00
2023-03-06T09:35:10.757Z,100.00
2023-03-06T09:36:13.040Z,100.00
2023-03-06T09:37:16.300Z,100.00
2023-03-06T09:38:18.791Z,100.00
2023-03-06T09:39:20.996Z,100.00
2023-03-06T09:40:23.245Z,100.00
2023-03-06T09:41:25.553Z,100.00
2023-03-06T09:42:27.776Z,100.00
2023-03-06T09:43:29.955Z,100.00
2023-03-06T09:44:32.104Z,100.00
2023-03-06T09:45:34.584Z,100.00
2023-03-06T09:46:37.496Z,100.00
2023-03-06T09:47:39.951Z,100.00
2023-03-06T09:48:42.385Z,100.00
2023-03-06T09:49:44.781Z,100.00
2023-03-06T09:50:46.982Z,100.00
2023-03-06T09:51:49.216Z,100.00
2023-03-06T09:52:51.421Z,100.00
2023-03-06T09:53:53.713Z,100.00
2023-03-06T09:54:55.916Z,100.00
2023-03-06T09:55:58.126Z,100.00
2023-03-06T09:57:00.518Z,100.00
2023-03-06T09:58:02.734Z,100.00
2023-03-06T09:59:05.190Z,100.00
2023-03-06T10:00:07.655Z,100.00
2023-03-06T10:01:10.042Z,100.00
2023-03-06T10:02:13.376Z,100.00
2023-03-06T10:03:16.180Z,100.00
2023-03-06T10:04:18.648Z,100.00
2023-03-06T10:05:21.286Z,100.00
2023-03-06T10:06:23.734Z,100.00
2023-03-06T10:07:26.253Z,100.00
2023-03-06T10:08:28.695Z,100.00
2023-03-06T10:09:31.200Z,100.00
2023-03-06T10:10:33.601Z,100.00
2023-03-06T10:11:36.062Z,100.00
2023-03-06T10:12:38.574Z,100.00
2023-03-06T10:13:40.831Z,100.00
2023-03-06T10:14:43.539Z,100.00
2023-03-06T10:15:46.056Z,100.00
2023-03-06T10:16:48.486Z,100.00
2023-03-06T10:17:50.917Z,100.00
2023-03-06T10:18:53.377Z,100.00
2023-03-06T10:19:55.834Z,100.00
2023-03-06T10:21:00.929Z,100.00
2023-03-06T10:22:02.214Z,100.00
2023-03-06T10:23:05.412Z,100.00
2023-03-06T10:24:08.016Z,100.00
2023-03-06T10:25:10.511Z,100.00
2023-03-06T10:26:13.026Z,100.00
2023-03-06T10:27:15.529Z,100.00
2023-03-06T10:28:18.288Z,100.00
2023-03-06T10:29:23.533Z,100.00
2023-03-06T10:30:26.623Z,100.00
2023-03-06T10:31:29.267Z,100.00
2023-03-06T10:32:46.257Z,100.00
2023-03-06T10:33:36.221Z,100.00
2023-03-06T10:34:38.801Z,100.00
2023-03-06T10:35:41.226Z,100.00
2023-03-06T10:36:43.726Z,100.00
2023-03-06T10:37:46.269Z,100.00
2023-03-06T10:38:49.046Z,100.00
2023-03-06T10:39:51.607Z,100.00
2023-03-06T10:40:54.148Z,100.00
2023-03-06T10:41:56.636Z,100.00
2023-03-06T10:43:11.111Z,100.00
2023-03-06T10:44:03.572Z,100.00
2023-03-06T10:45:06.303Z,100.00
2023-03-06T10:46:08.921Z,100.00
2023-03-06T10:47:11.405Z,100.00
2023-03-06T10:48:13.856Z,100.00
2023-03-06T10:49:16.850Z,100.00
2023-03-06T10:50:19.337Z,100.00
2023-03-06T10:51:21.608Z,100.00
2023-03-06T10:52:24.141Z,100.00
2023-03-06T10:53:26.577Z,100.00
2023-03-06T10:54:30.269Z,100.00
2023-03-06T10:55:32.744Z,100.00
2023-03-06T10:56:34.952Z,100.00
2023-03-06T10:57:37.184Z,100.00
2023-03-06T10:58:39.406Z,100.00
2023-03-06T10:59:41.605Z,100.00
2023-03-06T11:00:43.814Z,100.00
2023-03-06T11:01:46.063Z,100.00
2023-03-06T11:02:48.312Z,100.00
2023-03-06T11:03:50.454Z,100.00
2023-03-06T11:04:52.742Z,100.00
2023-03-06T11:05:54.998Z,100.00
2023-03-06T11:06:57.196Z,100.00
2023-03-06T11:07:59.353Z,100.00
2023-03-06T11:09:01.539Z,100.00
2023-03-06T11:10:04.407Z,100.00
2023-03-06T11:11:06.834Z,100.00
2023-03-06T11:12:09.239Z,100.00
2023-03-06T11:13:11.711Z,100.00
2023-03-06T11:14:14.145Z,100.00
2023-03-06T11:15:16.406Z,100.00
2023-03-06T11:16:18.868Z,100.00
2023-03-06T11:17:21.339Z,100.00
2023-03-06T11:18:23.744Z,100.00
2023-03-06T11:19:26.320Z,100.00
2023-03-06T11:20:31.777Z,100.00
2023-03-06T11:21:32.834Z,100.00
2023-03-06T11:22:35.354Z,100.00
2023-03-06T11:23:37.787Z,100.00
2023-03-06T11:24:48.952Z,100.00
2023-03-06T11:25:52.165Z,100.00
2023-03-06T11:26:54.808Z,100.00
2023-03-06T11:27:58.172Z,100.00
2023-03-06T11:29:01.306Z,100.00
2023-03-06T11:30:04.137Z,100.00
2023-03-06T11:31:07.434Z,100.00
2023-03-06T11:32:10.451Z,100.00
2023-03-06T11:33:13.077Z,100.00
2023-03-06T11:34:15.844Z,100.00
2023-03-06T11:35:18.518Z,100.00
2023-03-06T11:36:21.311Z,100.00
2023-03-06T11:37:24.064Z,100.00
2023-03-06T11:38:26.626Z,100.00
2023-03-06T11:39:29.312Z,100.00
2023-03-06T11:40:32.169Z,100.00
2023-03-06T11:41:35.158Z,100.00
2023-03-06T11:42:37.919Z,100.00
2023-03-06T11:43:40.591Z,100.00
2023-03-06T11:44:43.200Z,100.00
2023-03-06T11:45:45.720Z,100.00
2023-03-06T11:46:48.301Z,100.00
2023-03-06T11:47:51.281Z,100.00
2023-03-06T11:48:54.134Z,100.00
2023-03-06T11:49:57.040Z,100.00
2023-03-06T11:51:00.004Z,100.00
2023-03-06T11:52:02.774Z,100.00
2023-03-06T11:53:05.632Z,100.00
2023-03-06T11:54:08.822Z,100.00
2023-03-06T11:55:12.196Z,100.00
2023-03-06T11:56:15.206Z,100.00
2023-03-06T11:57:17.774Z,100.00
2023-03-06T11:58:20.427Z,100.00
2023-03-06T11:59:23.202Z,100.00
2023-03-06T12:00:26.097Z,100.00
2023-03-06T12:01:28.962Z,100.00
2023-03-06T12:02:31.939Z,100.00
2023-03-06T12:03:34.908Z,100.00
2023-03-06T12:04:38.084Z,100.00
2023-03-06T12:05:40.944Z,100.00
2023-03-06T12:06:43.746Z,100.00
2023-03-06T12:07:47.326Z,100.00
2023-03-06T12:08:50.802Z,100.00
2023-03-06T12:09:53.897Z,100.00
2023-03-06T12:10:56.578Z,100.00
2023-03-06T12:11:59.135Z,100.00
2023-03-06T12:13:02.004Z,100.00
2023-03-06T12:14:04.866Z,100.00
2023-03-06T12:15:07.541Z,100.00
2023-03-06T12:16:10.502Z,100.00
2023-03-06T12:17:13.200Z,100.00
2023-03-06T12:18:15.756Z,100.00
2023-03-06T12:19:18.737Z,100.00
2023-03-06T12:20:21.305Z,100.00
2023-03-06T12:21:24.087Z,100.00
2023-03-06T12:22:26.749Z,100.00
2023-03-06T12:23:29.418Z,100.00
2023-03-06T12:24:32.216Z,100.00
2023-03-06T12:25:34.869Z,100.00
2023-03-06T12:26:37.652Z,100.00
2023-03-06T12:27:40.203Z,100.00
2023-03-06T12:28:46.306Z,100.00
2023-03-06T12:29:48.521Z,100.00
2023-03-06T12:30:51.377Z,100.00
2023-03-06T12:31:54.359Z,100.00
2023-03-06T12:32:56.945Z,100.00
2023-03-06T12:33:59.799Z,100.00
2023-03-06T12:35:04.779Z,100.00
2023-03-06T12:36:06.677Z,100.00
2023-03-06T12:37:09.547Z,100.00
2023-03-06T12:38:12.218Z,100.00
2023-03-06T12:39:14.891Z,100.00
2023-03-06T12:40:17.705Z,100.00
2023-03-06T12:41:20.540Z,100.00
2023-03-06T12:42:23.870Z,100.00
2023-03-06T12:43:26.597Z,100.00
2023-03-06T12:44:29.274Z,100.00
2023-03-06T12:45:31.832Z,100.00
2023-03-06T12:46:34.729Z,100.00
2023-03-06T12:47:37.584Z,100.00
2023-03-06T12:48:40.663Z,100.00
2023-03-06T12:49:43.328Z,100.00
2023-03-06T12:50:45.998Z,100.00
2023-03-06T12:51:48.570Z,100.00
2023-03-06T12:52:51.559Z,100.00
2023-03-06T12:53:54.638Z,100.00
2023-03-06T12:54:57.306Z,100.00
2023-03-06T12:55:59.974Z,100.00
2023-03-06T12:57:02.674Z,100.00
2023-03-06T12:58:05.501Z,100.00
2023-03-06T12:59:09.004Z,100.00
2023-03-06T13:00:12.181Z,100.00
2023-03-06T13:01:15.096Z,100.00
2023-03-06T13:02:18.424Z,100.00
2023-03-06T13:03:21.219Z,100.00
2023-03-06T13:04:24.110Z,100.00